NCAR-RAP Real-Time Weather Data

Output produced by METARs form (30 March 2017  08:42 UTC)
found at http://weather.rap.ucar.edu/surface/
 
Conditions at: KSDF observed 30 March 2017  07:56 UTC
Temperature: 13.3°C (56°F)
Dewpoint: 7.2°C (45°F) [RH = 66%]
Pressure (altimeter): 29.86 inches Hg (1011.3 mb)
[Sea-level pressure: 1010.9 mb]
Winds: from the ESE (110 degrees) at 6 MPH (5 knots; 2.6 m/s)
Visibility: 10 or more miles (16+ km)
Ceiling: 20000 feet AGL
Clouds: few clouds at 5500 feet AGL
scattered clouds at 7000 feet AGL
overcast cloud deck at 20000 feet AGL
Present Weather: no significant weather observed at this time
KSDF 300756Z 11005KT 10SM FEW055 SCT070 OVC200 13/07 A2986 RMK AO2 SLP109 T01330072